createdAt,value
2023-01-15T00:01:34.683Z,76.19
2023-01-15T00:04:03.763Z,76.86
2023-01-15T00:06:32.667Z,77.68
2023-01-15T00:08:59.342Z,79.09
2023-01-15T00:11:25.819Z,78.84
2023-01-15T00:13:52.849Z,79.94
2023-01-15T00:16:21.905Z,82.07
2023-01-15T00:18:52.583Z,78.90
2023-01-15T00:21:20.897Z,79.16
2023-01-15T00:24:07.201Z,80.33
2023-01-15T00:26:53.500Z,77.52
2023-01-15T00:29:20.865Z,81.50
2023-01-15T00:31:57.933Z,79.98
2023-01-15T00:34:25.876Z,78.24
2023-01-15T00:36:52.830Z,78.30
2023-01-15T00:39:19.403Z,79.92
2023-01-15T00:41:46.077Z,78.27
2023-01-15T00:44:12.475Z,77.76
2023-01-15T00:46:39.065Z,78.61
2023-01-15T00:49:05.558Z,78.70
2023-01-15T00:51:32.028Z,79.68
2023-01-15T00:53:58.709Z,80.10
2023-01-15T00:56:25.111Z,78.82
2023-01-15T00:58:51.529Z,80.05
2023-01-15T01:01:18.353Z,81.05
2023-01-15T01:03:48.876Z,81.61
2023-01-15T01:06:16.957Z,80.88
2023-01-15T01:08:46.167Z,79.68
2023-01-15T01:11:16.643Z,81.67
2023-01-15T01:13:44.564Z,80.63
2023-01-15T01:16:22.353Z,82.54
2023-01-15T01:18:48.933Z,81.33
2023-01-15T01:21:15.409Z,82.70
2023-01-15T01:23:41.828Z,81.98
2023-01-15T01:26:08.288Z,82.60
2023-01-15T01:28:34.707Z,82.36
2023-01-15T01:31:04.988Z,81.32
2023-01-15T01:33:31.452Z,81.69
2023-01-15T01:35:57.902Z,83.45
2023-01-15T01:38:24.378Z,82.60
2023-01-15T01:40:50.821Z,80.37
2023-01-15T01:43:23.752Z,81.07
2023-01-15T01:45:50.240Z,80.52
2023-01-15T01:48:21.099Z,83.04
2023-01-15T01:50:49.848Z,80.52
2023-01-15T01:53:23.020Z,81.64
2023-01-15T01:55:51.386Z,82.32
2023-01-15T01:58:19.949Z,80.25
2023-01-15T02:00:48.875Z,80.94
2023-01-15T02:03:16.174Z,79.52
2023-01-15T02:05:51.567Z,79.20
2023-01-15T02:08:18.738Z,81.05
2023-01-15T02:10:51.855Z,81.69
2023-01-15T02:13:38.739Z,79.46
2023-01-15T02:16:16.546Z,79.55
2023-01-15T02:19:07.008Z,78.53
2023-01-15T02:21:58.762Z,79.04
2023-01-15T02:24:47.425Z,81.04
2023-01-15T02:27:20.605Z,79.05
2023-01-15T02:29:59.342Z,78.27
2023-01-15T02:32:50.289Z,78.76
2023-01-15T02:35:41.949Z,77.93
2023-01-15T02:38:12.408Z,78.78
2023-01-15T02:40:41.096Z,79.27
2023-01-15T02:43:09.119Z,79.67
2023-01-15T02:45:40.712Z,79.74
2023-01-15T02:48:13.687Z,77.70
2023-01-15T02:50:44.547Z,78.81
2023-01-15T02:53:17.264Z,78.18
2023-01-15T02:55:49.334Z,78.32
2023-01-15T02:58:26.006Z,80.44
2023-01-15T03:00:56.675Z,78.21
2023-01-15T03:03:45.105Z,78.63
2023-01-15T03:06:21.964Z,80.63
2023-01-15T03:08:48.522Z,78.25
2023-01-15T03:11:17.035Z,75.00
2023-01-15T03:13:48.955Z,77.57
2023-01-15T03:16:39.051Z,78.09
2023-01-15T03:19:34.201Z,75.66
2023-01-15T03:22:10.379Z,76.80
2023-01-15T03:24:43.774Z,76.20
2023-01-15T03:27:11.137Z,77.83
2023-01-15T03:29:42.256Z,77.43
2023-01-15T03:32:08.946Z,78.71
2023-01-15T03:34:45.062Z,75.21
2023-01-15T03:37:12.703Z,76.62
2023-01-15T03:39:40.370Z,75.62
2023-01-15T03:42:24.721Z,76.45
2023-01-15T03:45:12.995Z,74.38
2023-01-15T03:48:15.847Z,75.63
2023-01-15T03:51:12.210Z,74.71
2023-01-15T03:53:57.760Z,71.73
2023-01-15T03:56:44.841Z,71.29
2023-01-15T03:59:38.060Z,74.46
2023-01-15T04:02:08.685Z,73.59
2023-01-15T04:04:35.958Z,73.76
2023-01-15T04:07:03.097Z,71.46
2023-01-15T04:09:30.316Z,70.54
2023-01-15T04:12:01.142Z,74.03
2023-01-15T04:14:30.294Z,71.84
2023-01-15T04:16:56.757Z,69.50
2023-01-15T04:19:23.173Z,69.58
2023-01-15T04:21:49.612Z,69.54
2023-01-15T04:24:16.017Z,69.03
2023-01-15T04:26:42.430Z,70.08
2023-01-15T04:29:08.867Z,68.80
2023-01-15T04:31:36.220Z,69.79
2023-01-15T04:34:03.902Z,71.28
2023-01-15T04:36:30.805Z,70.21
2023-01-15T04:38:59.228Z,69.67
2023-01-15T04:41:44.352Z,70.88
2023-01-15T04:44:10.751Z,70.59
2023-01-15T04:46:40.135Z,69.74
2023-01-15T04:49:10.641Z,69.28
2023-01-15T04:51:37.435Z,70.90
2023-01-15T04:54:05.474Z,71.54
2023-01-15T04:56:32.731Z,69.65
2023-01-15T04:59:02.953Z,67.28
2023-01-15T05:01:29.567Z,67.70
2023-01-15T05:03:57.672Z,69.51
2023-01-15T05:06:25.451Z,67.68
2023-01-15T05:08:52.537Z,66.72
2023-01-15T05:11:19.279Z,69.29
2023-01-15T05:13:45.698Z,66.55
2023-01-15T05:16:14.521Z,65.33
2023-01-15T05:18:42.619Z,66.72
2023-01-15T05:21:18.329Z,67.73
2023-01-15T05:23:45.392Z,68.21
2023-01-15T05:26:11.887Z,66.68
2023-01-15T05:28:38.742Z,68.23
2023-01-15T05:31:10.118Z,68.08
2023-01-15T05:33:37.995Z,67.17
2023-01-15T05:36:07.396Z,67.76
2023-01-15T05:38:34.814Z,70.61
2023-01-15T05:41:28.284Z,66.57
2023-01-15T05:43:56.003Z,67.93
2023-01-15T05:46:23.212Z,66.15
2023-01-15T05:48:49.686Z,67.79
2023-01-15T05:51:16.293Z,68.94
2023-01-15T05:53:42.968Z,65.67
2023-01-15T05:56:09.438Z,65.56
2023-01-15T05:58:36.542Z,68.28
2023-01-15T06:01:08.509Z,68.52
2023-01-15T06:03:35.425Z,67.69
2023-01-15T06:06:02.025Z,65.75
2023-01-15T06:08:28.447Z,68.06
2023-01-15T06:10:54.866Z,66.64
2023-01-15T06:13:21.296Z,65.80
2023-01-15T06:15:47.776Z,67.42
2023-01-15T06:18:17.000Z,67.98
2023-01-15T06:20:43.895Z,63.65
2023-01-15T06:23:10.396Z,67.22
2023-01-15T06:25:37.552Z,66.29
2023-01-15T06:28:08.567Z,67.35
2023-01-15T06:30:39.274Z,63.62
2023-01-15T06:33:07.478Z,65.44
2023-01-15T06:35:34.092Z,65.36
2023-01-15T06:38:00.549Z,64.56
2023-01-15T06:40:28.822Z,67.86
2023-01-15T06:43:17.088Z,69.51
2023-01-15T06:46:02.562Z,68.15
2023-01-15T06:48:29.188Z,66.89
2023-01-15T06:50:55.724Z,65.80
2023-01-15T06:53:23.136Z,65.35
2023-01-15T06:55:49.602Z,66.43
2023-01-15T06:58:16.051Z,66.00
2023-01-15T07:00:44.481Z,64.10
2023-01-15T07:03:14.234Z,65.46
2023-01-15T07:05:41.375Z,65.59
2023-01-15T07:08:07.993Z,63.71
2023-01-15T07:10:35.631Z,64.19
2023-01-15T07:13:02.525Z,66.23
2023-01-15T07:15:29.065Z,66.90
2023-01-15T07:17:56.687Z,63.26
2023-01-15T07:20:23.642Z,63.24
2023-01-15T07:22:53.854Z,63.91
2023-01-15T07:25:20.398Z,63.49
2023-01-15T07:27:48.097Z,63.79
2023-01-15T07:30:15.380Z,64.79
2023-01-15T07:32:42.171Z,63.32
2023-01-15T07:35:10.139Z,64.65
2023-01-15T07:37:37.756Z,67.99
2023-01-15T07:40:04.926Z,65.92
2023-01-15T07:42:49.879Z,64.80
2023-01-15T07:45:34.847Z,67.28
2023-01-15T07:48:30.900Z,63.64
2023-01-15T07:50:57.396Z,62.98
2023-01-15T07:53:23.788Z,65.73
2023-01-15T07:55:50.253Z,66.24
2023-01-15T07:58:16.856Z,64.45
2023-01-15T08:00:43.369Z,65.40
2023-01-15T08:03:09.906Z,65.38
2023-01-15T08:05:36.346Z,66.10
2023-01-15T08:08:02.846Z,65.87
2023-01-15T08:10:29.366Z,62.97
2023-01-15T08:13:34.001Z,65.60
2023-01-15T08:16:00.508Z,62.17
2023-01-15T08:18:26.977Z,62.85
2023-01-15T08:20:53.403Z,63.71
2023-01-15T08:23:19.872Z,60.71
2023-01-15T08:25:46.305Z,61.59
2023-01-15T08:28:14.521Z,59.79
2023-01-15T08:30:40.998Z,62.05
2023-01-15T08:33:07.448Z,60.75
2023-01-15T08:35:34.477Z,63.09
2023-01-15T08:38:08.092Z,61.65
2023-01-15T08:40:36.378Z,61.42
2023-01-15T08:43:03.082Z,62.17
2023-01-15T08:45:29.484Z,61.43
2023-01-15T08:48:00.320Z,61.35
2023-01-15T08:50:26.750Z,62.60
2023-01-15T08:52:53.434Z,61.90
2023-01-15T08:55:20.010Z,60.37
2023-01-15T08:57:46.476Z,62.51
2023-01-15T09:00:13.483Z,60.16
2023-01-15T09:02:39.906Z,61.11
2023-01-15T09:05:06.654Z,60.94
2023-01-15T09:07:35.220Z,64.36
2023-01-15T09:10:01.777Z,60.82
2023-01-15T09:12:29.205Z,61.49
2023-01-15T09:15:02.120Z,62.26
2023-01-15T09:17:31.052Z,62.80
2023-01-15T09:19:57.513Z,60.27
2023-01-15T09:22:25.313Z,62.31
2023-01-15T09:24:51.734Z,60.03
2023-01-15T09:27:18.153Z,61.02
2023-01-15T09:29:44.581Z,59.74
2023-01-15T09:32:11.075Z,60.49
2023-01-15T09:34:37.557Z,64.50
2023-01-15T09:37:04.074Z,62.56
2023-01-15T09:39:30.571Z,65.64
2023-01-15T09:42:24.328Z,63.30
2023-01-15T09:44:53.747Z,67.38
2023-01-15T09:47:33.168Z,64.21
2023-01-15T09:50:30.731Z,64.68
2023-01-15T09:53:20.010Z,64.68
2023-01-15T09:55:49.267Z,64.32
2023-01-15T09:58:19.929Z,62.05
2023-01-15T10:00:49.214Z,61.77
2023-01-15T10:03:29.098Z,61.84
2023-01-15T10:06:02.578Z,61.90
2023-01-15T10:08:36.891Z,61.93
2023-01-15T10:11:05.893Z,61.50
2023-01-15T10:13:54.842Z,61.49
2023-01-15T10:16:33.747Z,63.02
2023-01-15T10:19:02.673Z,63.24
2023-01-15T10:21:40.974Z,62.25
2023-01-15T10:24:19.264Z,61.98
2023-01-15T10:26:56.063Z,61.50
2023-01-15T10:29:45.630Z,61.41
2023-01-15T10:33:07.609Z,60.40
2023-01-15T10:35:49.123Z,58.75
2023-01-15T10:38:38.030Z,62.08
2023-01-15T10:41:29.925Z,63.13
2023-01-15T10:44:19.233Z,59.58
2023-01-15T10:46:55.079Z,62.73
2023-01-15T10:49:22.423Z,65.13
2023-01-15T10:52:02.569Z,65.96
2023-01-15T10:54:45.385Z,67.39
2023-01-15T10:57:17.377Z,63.79
2023-01-15T10:59:54.957Z,65.08
2023-01-15T11:02:27.654Z,63.90
2023-01-15T11:04:54.381Z,65.43
2023-01-15T11:07:35.743Z,62.20
2023-01-15T11:10:06.442Z,62.88
2023-01-15T11:12:51.580Z,60.21
2023-01-15T11:15:42.841Z,64.17
2023-01-15T11:18:42.337Z,62.19
2023-01-15T11:21:15.354Z,63.81
2023-01-15T11:23:42.147Z,65.15
2023-01-15T11:26:10.182Z,65.24
2023-01-15T11:28:43.035Z,62.71
2023-01-15T11:31:11.558Z,61.73
2023-01-15T11:33:39.177Z,61.64
2023-01-15T11:36:08.147Z,62.84
2023-01-15T11:38:46.575Z,58.90
2023-01-15T11:41:20.294Z,61.35
2023-01-15T11:44:16.589Z,60.51
2023-01-15T11:47:04.951Z,62.39
2023-01-15T11:49:49.805Z,58.10
2023-01-15T11:52:20.355Z,58.61
2023-01-15T11:54:51.072Z,59.67
2023-01-15T11:57:30.178Z,58.37
2023-01-15T11:59:57.888Z,60.75
2023-01-15T12:02:41.163Z,60.25
2023-01-15T12:05:18.035Z,57.49
2023-01-15T12:07:45.422Z,57.31
2023-01-15T12:10:55.016Z,58.10
2023-01-15T12:13:54.854Z,58.84
2023-01-15T12:16:41.370Z,60.65
2023-01-15T12:19:35.322Z,56.63
2023-01-15T12:22:17.765Z,57.55
2023-01-15T12:24:47.173Z,58.94
2023-01-15T12:27:29.768Z,56.47
2023-01-15T12:30:17.675Z,56.75
2023-01-15T12:32:52.783Z,56.64
2023-01-15T12:35:25.743Z,55.39
2023-01-15T12:37:56.701Z,55.89
2023-01-15T12:40:23.191Z,57.18
2023-01-15T12:43:11.785Z,55.30
2023-01-15T12:45:48.131Z,55.37
2023-01-15T12:48:35.484Z,55.63
2023-01-15T12:51:05.286Z,53.13
2023-01-15T12:53:44.534Z,53.87
2023-01-15T12:56:21.961Z,54.85
2023-01-15T12:59:06.200Z,53.07
2023-01-15T13:01:51.133Z,51.64
2023-01-15T13:04:41.924Z,52.10
2023-01-15T13:07:37.325Z,52.72
2023-01-15T13:10:10.736Z,50.28
2023-01-15T13:12:37.136Z,49.56
2023-01-15T13:15:04.748Z,50.25
2023-01-15T13:17:51.453Z,51.01
2023-01-15T13:20:48.685Z,49.43
2023-01-15T13:23:20.819Z,50.94
2023-01-15T13:25:53.377Z,50.12
2023-01-15T13:28:22.786Z,49.58
2023-01-15T13:30:55.120Z,49.03
2023-01-15T13:33:28.016Z,49.03
2023-01-15T13:36:03.580Z,49.46
2023-01-15T13:38:32.985Z,49.91
2023-01-15T13:40:59.531Z,48.98
2023-01-15T13:43:34.814Z,47.74
2023-01-15T13:46:03.980Z,48.15
2023-01-15T13:48:44.548Z,47.61
2023-01-15T13:51:43.042Z,48.27
2023-01-15T13:54:16.738Z,47.92
2023-01-15T13:56:44.612Z,48.23
2023-01-15T13:59:45.229Z,49.16
2023-01-15T14:02:24.828Z,50.22
2023-01-15T14:04:52.042Z,50.37
2023-01-15T14:07:20.676Z,50.49
2023-01-15T14:09:47.111Z,50.12
2023-01-15T14:12:21.735Z,50.73
2023-01-15T14:15:19.003Z,49.49
2023-01-15T14:18:10.293Z,48.02
2023-01-15T14:20:57.329Z,48.46
2023-01-15T14:23:35.929Z,48.26
2023-01-15T14:26:26.354Z,48.73
2023-01-15T14:29:22.229Z,49.11
2023-01-15T14:32:09.692Z,50.30
2023-01-15T14:34:36.403Z,49.86
2023-01-15T14:37:41.243Z,50.67
2023-01-15T14:40:25.988Z,49.96
2023-01-15T14:43:02.671Z,49.00
2023-01-15T14:45:40.271Z,49.58
2023-01-15T14:48:17.718Z,49.63
2023-01-15T14:50:45.352Z,50.25
2023-01-15T14:53:11.728Z,49.94
2023-01-15T14:55:39.963Z,49.78
2023-01-15T14:58:16.299Z,48.92
2023-01-15T15:00:45.896Z,49.93
2023-01-15T15:03:22.812Z,49.20
2023-01-15T15:05:49.694Z,48.81
2023-01-15T15:08:19.455Z,50.20
2023-01-15T15:10:53.699Z,49.92
2023-01-15T15:13:28.808Z,48.15
2023-01-15T15:16:10.115Z,49.98
2023-01-15T15:18:44.029Z,48.68
2023-01-15T15:21:16.867Z,48.52
2023-01-15T15:24:09.489Z,47.76
2023-01-15T15:26:37.841Z,49.32
2023-01-15T15:29:12.392Z,49.56
2023-01-15T15:31:40.919Z,50.03
2023-01-15T15:34:15.938Z,48.67
2023-01-15T15:36:45.804Z,50.83
2023-01-15T15:39:47.412Z,50.91
2023-01-15T15:42:52.077Z,48.94
2023-01-15T15:45:38.571Z,51.04
2023-01-15T15:48:53.175Z,49.87
2023-01-15T15:51:42.510Z,50.31
2023-01-15T15:54:11.947Z,51.04
2023-01-15T15:56:44.151Z,48.78
2023-01-15T15:59:27.505Z,48.65
2023-01-15T16:01:55.550Z,50.42
2023-01-15T16:04:22.832Z,49.64
2023-01-15T16:06:49.436Z,50.03
2023-01-15T16:09:21.934Z,50.68
2023-01-15T16:11:50.695Z,49.50
2023-01-15T16:14:18.260Z,49.53
2023-01-15T16:16:48.027Z,50.35
2023-01-15T16:19:21.316Z,50.69
2023-01-15T16:21:49.376Z,50.21
2023-01-15T16:24:27.657Z,50.40
2023-01-15T16:27:00.568Z,50.60
2023-01-15T16:29:30.807Z,48.70
2023-01-15T16:31:59.711Z,49.83
2023-01-15T16:34:32.593Z,50.16
2023-01-15T16:37:26.560Z,50.08
2023-01-15T16:43:15.627Z,49.63
2023-01-15T16:45:57.354Z,51.07
2023-01-15T16:48:38.248Z,50.86
2023-01-15T16:51:34.601Z,51.37
2023-01-15T16:54:04.147Z,51.89
2023-01-15T16:56:39.719Z,49.54
2023-01-15T16:59:17.953Z,50.07
2023-01-15T17:02:17.715Z,51.13
2023-01-15T17:04:45.547Z,50.80
2023-01-15T17:07:37.080Z,50.22
2023-01-15T17:10:06.389Z,50.42
2023-01-15T17:12:42.282Z,51.67
2023-01-15T17:15:18.183Z,50.06
2023-01-15T17:17:48.767Z,50.44
2023-01-15T17:20:16.400Z,48.56
2023-01-15T17:22:47.499Z,49.46
2023-01-15T17:25:27.256Z,48.80
2023-01-15T17:27:59.468Z,47.71
2023-01-15T17:30:34.609Z,49.11
2023-01-15T17:33:02.758Z,51.20
2023-01-15T17:35:31.917Z,50.38
2023-01-15T17:37:58.739Z,50.06
2023-01-15T17:40:25.287Z,48.73
2023-01-15T17:42:51.806Z,51.01
2023-01-15T17:45:27.162Z,50.74
2023-01-15T17:47:53.753Z,50.74
2023-01-15T17:50:20.788Z,48.91
2023-01-15T17:52:47.723Z,52.34
2023-01-15T17:55:39.273Z,51.33
2023-01-15T17:58:24.029Z,50.48
2023-01-15T18:01:11.310Z,51.68
2023-01-15T18:04:01.627Z,50.38
2023-01-15T18:06:28.650Z,49.99
2023-01-15T18:08:58.873Z,52.89
2023-01-15T18:11:25.395Z,51.55
2023-01-15T18:13:52.429Z,51.79
2023-01-15T18:16:19.235Z,51.20
2023-01-15T18:18:45.693Z,50.99
2023-01-15T18:21:12.138Z,49.95
2023-01-15T18:23:39.594Z,52.83
2023-01-15T18:26:08.352Z,50.55
2023-01-15T18:28:36.461Z,51.89
2023-01-15T18:31:03.466Z,50.95
2023-01-15T18:33:29.983Z,50.39
2023-01-15T18:36:08.769Z,50.99
2023-01-15T18:38:36.876Z,52.27
2023-01-15T18:41:33.692Z,51.56
2023-01-15T18:44:19.642Z,50.39
2023-01-15T18:46:49.517Z,52.36
2023-01-15T18:49:16.561Z,50.85
2023-01-15T18:51:42.993Z,49.21
2023-01-15T18:54:10.222Z,52.23
2023-01-15T18:56:40.049Z,51.60
2023-01-15T18:59:08.447Z,50.55
2023-01-15T19:01:35.196Z,53.00
2023-01-15T19:04:02.344Z,50.48
2023-01-15T19:06:28.846Z,51.44
2023-01-15T19:08:55.327Z,51.18
2023-01-15T19:11:21.803Z,50.11
2023-01-15T19:14:08.167Z,52.46
2023-01-15T19:16:53.223Z,50.06
2023-01-15T19:19:19.712Z,51.15
2023-01-15T19:21:46.981Z,51.20
2023-01-15T19:24:13.742Z,53.04
2023-01-15T19:26:40.311Z,51.28
2023-01-15T19:29:06.977Z,51.73
2023-01-15T19:31:37.009Z,51.19
2023-01-15T19:34:32.093Z,50.70
2023-01-15T19:36:54.592Z,52.82
2023-01-15T19:39:21.433Z,51.52
2023-01-15T19:42:06.387Z,50.78
2023-01-15T19:44:51.144Z,51.66
2023-01-15T19:47:43.432Z,51.82
2023-01-15T19:50:19.063Z,50.36
2023-01-15T19:52:47.285Z,51.49
2023-01-15T19:55:15.170Z,52.79
2023-01-15T19:57:43.708Z,52.94
2023-01-15T20:00:12.899Z,51.58
2023-01-15T20:02:39.678Z,52.38
2023-01-15T20:05:07.193Z,52.36
2023-01-15T20:07:33.626Z,52.08
2023-01-15T20:10:00.153Z,52.89
2023-01-15T20:12:44.892Z,50.89
2023-01-15T20:15:11.406Z,51.80
2023-01-15T20:17:37.839Z,52.50
2023-01-15T20:20:04.773Z,53.22
2023-01-15T20:22:32.109Z,52.53
2023-01-15T20:24:58.530Z,54.35
2023-01-15T20:27:25.038Z,53.66
2023-01-15T20:30:04.041Z,54.13
2023-01-15T20:32:30.506Z,53.46
2023-01-15T20:34:57.247Z,53.57
2023-01-15T20:37:23.920Z,53.79
2023-01-15T20:39:52.297Z,51.14
2023-01-15T20:42:37.183Z,53.59
2023-01-15T20:45:10.718Z,53.59
2023-01-15T20:47:58.091Z,52.91
2023-01-15T20:50:27.976Z,53.00
2023-01-15T20:52:58.582Z,53.04
2023-01-15T20:55:49.644Z,52.00
2023-01-15T20:58:22.690Z,53.57
2023-01-15T21:00:49.237Z,51.21
2023-01-15T21:03:15.677Z,52.44
2023-01-15T21:05:42.069Z,52.56
2023-01-15T21:08:08.486Z,50.66
2023-01-15T21:10:34.967Z,51.86
2023-01-15T21:13:01.373Z,51.01
2023-01-15T21:15:27.867Z,55.53
2023-01-15T21:17:54.268Z,53.50
2023-01-15T21:20:20.684Z,54.69
2023-01-15T21:22:47.470Z,55.12
2023-01-15T21:25:13.956Z,54.55
2023-01-15T21:27:40.758Z,53.77
2023-01-15T21:30:08.696Z,53.97
2023-01-15T21:32:35.164Z,54.42
2023-01-15T21:35:01.772Z,54.97
2023-01-15T21:37:28.302Z,54.74
2023-01-15T21:39:54.696Z,55.12
2023-01-15T21:42:53.997Z,55.40
2023-01-15T21:45:20.483Z,56.44
2023-01-15T21:47:46.883Z,56.01
2023-01-15T21:50:13.324Z,56.71
2023-01-15T21:52:39.748Z,58.89
2023-01-15T21:55:07.393Z,54.36
2023-01-15T21:57:33.934Z,56.00
2023-01-15T22:00:00.375Z,58.73
2023-01-15T22:02:29.674Z,57.08
2023-01-15T22:04:56.117Z,58.27
2023-01-15T22:07:22.548Z,58.04
2023-01-15T22:09:48.971Z,57.64
2023-01-15T22:12:15.430Z,57.88
2023-01-15T22:14:44.509Z,58.20
2023-01-15T22:17:11.093Z,59.20
2023-01-15T22:19:37.634Z,59.22
2023-01-15T22:22:08.480Z,59.94
2023-01-15T22:24:36.560Z,58.77
2023-01-15T22:27:06.244Z,60.08
2023-01-15T22:29:38.258Z,57.26
2023-01-15T22:32:06.052Z,57.51
2023-01-15T22:34:32.833Z,60.71
2023-01-15T22:36:59.302Z,60.35
2023-01-15T22:39:26.558Z,61.74
2023-01-15T22:42:12.269Z,58.23
2023-01-15T22:44:38.931Z,59.97
2023-01-15T22:47:06.481Z,59.33
2023-01-15T22:49:33.035Z,62.31
2023-01-15T22:51:59.603Z,61.04
2023-01-15T22:54:26.070Z,61.58
2023-01-15T22:56:52.535Z,61.41
2023-01-15T22:59:19.412Z,61.05
2023-01-15T23:01:46.043Z,61.83
2023-01-15T23:04:20.694Z,61.84
2023-01-15T23:06:48.845Z,60.83
2023-01-15T23:09:15.341Z,60.10
2023-01-15T23:11:41.764Z,61.72
2023-01-15T23:14:11.086Z,58.23
2023-01-15T23:16:37.611Z,61.08
2023-01-15T23:19:05.682Z,61.11
2023-01-15T23:21:32.936Z,59.59
2023-01-15T23:24:00.897Z,58.57
2023-01-15T23:26:30.504Z,59.77
2023-01-15T23:28:56.961Z,58.57
2023-01-15T23:31:24.019Z,57.52
2023-01-15T23:33:50.696Z,57.00
2023-01-15T23:36:17.321Z,57.24
2023-01-15T23:38:46.488Z,56.78
2023-01-15T23:41:15.689Z,57.42
2023-01-15T23:44:02.062Z,58.03
2023-01-15T23:46:32.632Z,57.35
2023-01-15T23:49:10.312Z,57.83
2023-01-15T23:51:37.574Z,60.02
2023-01-15T23:54:05.563Z,57.84
2023-01-15T23:56:33.136Z,57.89
2023-01-15T23:59:00.262Z,57.78
